createdAt,value
2018-06-02T00:00:37.284Z,93.19
2018-06-02T00:02:39.009Z,93.39
2018-06-02T00:04:40.448Z,92.72
2018-06-02T00:06:41.861Z,93.05
2018-06-02T00:08:43.286Z,93.82
2018-06-02T00:10:44.706Z,93.73
2018-06-02T00:12:46.130Z,93.73
2018-06-02T00:14:47.607Z,93.29
2018-06-02T00:16:49.024Z,92.81
2018-06-02T00:18:50.550Z,92.81
2018-06-02T00:20:51.971Z,92.77
2018-06-02T00:22:53.394Z,93.15
2018-06-02T00:24:54.820Z,93.15
2018-06-02T00:26:56.391Z,93.39
2018-06-02T00:28:57.815Z,93.73
2018-06-02T00:30:59.349Z,93.63
2018-06-02T00:33:00.801Z,93.82
2018-06-02T00:35:02.385Z,93.92
2018-06-02T00:37:04.107Z,93.96
2018-06-02T00:39:05.626Z,93.49
2018-06-02T00:41:07.115Z,94.88
2018-06-02T00:43:08.551Z,93.73
2018-06-02T00:45:10.256Z,94.59
2018-06-02T00:47:11.999Z,95.26
2018-06-02T00:49:13.727Z,94.88
2018-06-02T00:51:15.461Z,95.36
2018-06-02T00:53:17.157Z,95.65
2018-06-02T00:55:18.877Z,94.78
2018-06-02T00:57:20.428Z,95.55
2018-06-02T00:59:22.170Z,95.36
2018-06-02T01:01:23.701Z,96.27
2018-06-02T01:03:25.233Z,96.75
2018-06-02T01:05:26.822Z,96.66
2018-06-02T01:07:28.562Z,96.94
2018-06-02T01:09:30.349Z,96.75
2018-06-02T01:11:31.838Z,96.18
2018-06-02T01:13:33.622Z,95.50
2018-06-02T01:15:35.354Z,95.50
2018-06-02T01:17:37.111Z,94.93
2018-06-02T01:19:38.654Z,95.31
2018-06-02T01:21:40.137Z,94.98
2018-06-02T01:23:41.661Z,94.98
2018-06-02T01:25:43.217Z,94.54
2018-06-02T01:27:44.703Z,95.60
2018-06-02T01:29:46.471Z,95.50
2018-06-02T01:31:47.894Z,94.64
2018-06-02T01:33:49.647Z,95.12
2018-06-02T01:35:51.402Z,94.98
2018-06-02T01:37:53.019Z,94.88
2018-06-02T01:39:54.523Z,94.69
2018-06-02T01:41:56.247Z,94.31
2018-06-02T01:43:57.949Z,93.63
2018-06-02T01:45:59.740Z,94.49
2018-06-02T01:48:01.545Z,93.63
2018-06-02T01:50:03.237Z,93.15
2018-06-02T01:52:05.027Z,92.77
2018-06-02T01:54:47.461Z,92.96
2018-06-02T01:56:48.887Z,93.63
2018-06-02T01:58:50.366Z,93.44
2018-06-02T02:00:52.401Z,94.21
2018-06-02T02:02:54.091Z,93.63
2018-06-02T02:05:36.729Z,95.36
2018-06-02T02:07:38.155Z,94.88
2018-06-02T02:09:40.246Z,94.98
2018-06-02T02:11:41.716Z,94.93
2018-06-02T02:14:24.128Z,95.50
2018-06-02T02:16:25.588Z,96.13
2018-06-02T02:18:26.996Z,96.80
2018-06-02T02:20:29.030Z,96.75
2018-06-02T02:22:30.467Z,96.18
2018-06-02T02:25:12.888Z,95.89
2018-06-02T02:27:14.313Z,95.21
2018-06-02T02:29:16.189Z,96.18
2018-06-02T02:31:17.686Z,95.31
2018-06-02T02:33:19.305Z,95.75
2018-06-02T02:36:02.335Z,95.41
2018-06-02T02:38:03.737Z,95.12
2018-06-02T02:40:05.172Z,95.21
2018-06-02T02:42:06.608Z,94.93
2018-06-02T02:44:49.321Z,94.93
2018-06-02T02:46:50.768Z,95.60
2018-06-02T02:48:52.170Z,95.50
2018-06-02T02:50:53.594Z,96.22
2018-06-02T02:52:55.086Z,96.37
2018-06-02T02:55:37.735Z,96.18
2018-06-02T02:57:39.589Z,96.70
2018-06-02T02:59:41.009Z,96.75
2018-06-02T03:01:43.001Z,96.27
2018-06-02T03:03:44.520Z,96.18
2018-06-02T03:05:45.945Z,95.21
2018-06-02T03:07:47.418Z,94.93
2018-06-02T03:09:48.844Z,94.74
2018-06-02T03:11:50.330Z,94.78
2018-06-02T03:13:51.860Z,94.49
2018-06-02T03:15:53.289Z,94.74
2018-06-02T03:17:55.038Z,95.50
2018-06-02T03:19:56.599Z,95.70
2018-06-02T03:21:58.336Z,96.08
2018-06-02T03:23:59.857Z,95.70
2018-06-02T03:26:01.409Z,95.70
2018-06-02T03:28:02.863Z,96.27
2018-06-02T03:30:04.709Z,96.37
2018-06-02T03:32:06.523Z,95.98
2018-06-02T03:34:08.347Z,96.85
2018-06-02T03:36:10.180Z,96.66
2018-06-02T03:38:11.673Z,97.24
2018-06-02T03:40:13.191Z,97.42
2018-06-02T03:42:15.015Z,97.33
2018-06-02T03:44:16.785Z,97.42
2018-06-02T03:46:18.603Z,98.19
2018-06-02T03:48:20.441Z,98.86
2018-06-02T03:50:22.014Z,98.86
2018-06-02T03:52:23.803Z,99.05
2018-06-02T03:54:25.284Z,98.29
2018-06-02T03:56:26.802Z,99.05
2018-06-02T03:58:28.341Z,98.96
2018-06-02T04:00:30.183Z,99.82
2018-06-02T04:02:31.676Z,99.92
2018-06-02T04:04:33.167Z,99.99
2018-06-02T04:06:34.661Z,99.99
2018-06-02T04:08:36.467Z,99.73
2018-06-02T04:10:38.030Z,99.99
2018-06-02T04:12:39.542Z,99.99
2018-06-02T04:14:41.370Z,99.99
2018-06-02T04:16:42.895Z,99.99
2018-06-02T04:18:44.369Z,99.99
2018-06-02T04:20:45.944Z,99.99
2018-06-02T04:22:47.749Z,99.99
2018-06-02T04:24:49.301Z,99.99
2018-06-02T04:26:51.023Z,99.99
2018-06-02T04:28:52.530Z,99.99
2018-06-02T04:30:54.037Z,99.99
2018-06-02T04:32:55.579Z,99.99
2018-06-02T04:34:57.039Z,99.99
2018-06-02T04:36:58.574Z,99.99
2018-06-02T04:39:00.140Z,99.99
2018-06-02T04:41:01.886Z,99.99
2018-06-02T04:43:03.371Z,99.99
2018-06-02T04:45:04.914Z,99.99
2018-06-02T04:47:06.429Z,99.99
2018-06-02T04:49:08.189Z,99.99
2018-06-02T04:51:10.012Z,99.99
2018-06-02T04:53:11.752Z,99.99
2018-06-02T04:55:13.314Z,99.99
2018-06-02T04:57:14.820Z,99.99
2018-06-02T04:59:16.322Z,99.99
2018-06-02T05:01:18.112Z,99.99
2018-06-02T05:03:19.937Z,99.99
2018-06-02T05:05:21.716Z,99.99
2018-06-02T05:07:23.220Z,99.99
2018-06-02T05:09:24.819Z,99.99
2018-06-02T05:11:26.351Z,99.99
2018-06-02T05:13:27.869Z,99.99
2018-06-02T05:16:10.335Z,99.99
2018-06-02T05:18:11.773Z,99.99
2018-06-02T05:20:13.193Z,99.99
2018-06-02T05:22:14.617Z,99.99
2018-06-02T05:24:57.030Z,99.99
2018-06-02T05:26:58.494Z,99.99
2018-06-02T05:28:59.960Z,99.99
2018-06-02T05:31:01.382Z,99.99
2018-06-02T05:33:02.838Z,99.99
2018-06-02T05:35:04.335Z,99.99
2018-06-02T05:37:05.779Z,99.99
2018-06-02T05:39:07.204Z,99.99
2018-06-02T05:41:08.625Z,99.99
2018-06-02T05:43:10.050Z,99.99
2018-06-02T05:45:52.554Z,99.99
2018-06-02T05:47:53.964Z,99.99
2018-06-02T05:49:55.393Z,99.99
2018-06-02T05:51:56.979Z,99.99
2018-06-02T05:54:39.411Z,99.99
2018-06-02T05:56:40.821Z,99.99
2018-06-02T05:58:42.251Z,99.99
2018-06-02T06:00:43.684Z,99.99
2018-06-02T06:02:45.104Z,99.99
2018-06-02T06:04:46.530Z,99.99
2018-06-02T06:06:48.534Z,99.99
2018-06-02T06:08:50.060Z,99.99
2018-06-02T06:10:51.537Z,99.99
2018-06-02T06:12:53.483Z,99.99
2018-06-02T06:15:35.938Z,99.99
2018-06-02T06:17:37.368Z,99.99
2018-06-02T06:19:38.846Z,99.99
2018-06-02T06:21:40.210Z,99.99
2018-06-02T06:24:22.720Z,99.99
2018-06-02T06:26:24.180Z,99.99
2018-06-02T06:28:25.606Z,99.99
2018-06-02T06:30:27.130Z,99.99
2018-06-02T06:32:28.562Z,99.99
2018-06-02T06:34:29.986Z,99.99
2018-06-02T06:36:31.892Z,99.99
2018-06-02T06:38:33.277Z,99.99
2018-06-02T06:40:34.709Z,99.99
2018-06-02T06:42:36.232Z,99.99
2018-06-02T06:44:37.725Z,99.99
2018-06-02T06:46:39.093Z,99.99
2018-06-02T06:48:40.517Z,99.99
2018-06-02T06:50:42.008Z,99.99
2018-06-02T06:52:43.503Z,99.99
2018-06-02T06:54:45.476Z,99.99
2018-06-02T06:56:47.262Z,99.99
2018-06-02T06:58:48.851Z,99.99
2018-06-02T07:00:50.686Z,99.99
2018-06-02T07:02:52.160Z,99.99
2018-06-02T07:04:53.903Z,99.99
2018-06-02T07:06:55.409Z,99.99
2018-06-02T07:08:56.939Z,99.99
2018-06-02T07:10:58.465Z,99.99
2018-06-02T07:12:59.996Z,99.99
2018-06-02T07:15:01.678Z,99.99
2018-06-02T07:17:03.209Z,99.99
2018-06-02T07:19:04.719Z,99.99
2018-06-02T07:21:06.260Z,99.99
2018-06-02T07:23:07.819Z,99.99
2018-06-02T07:25:09.322Z,99.99
2018-06-02T07:27:10.960Z,99.99
2018-06-02T07:29:12.456Z,99.99
2018-06-02T07:31:14.036Z,99.99
2018-06-02T07:33:15.554Z,99.99
2018-06-02T07:35:17.289Z,99.99
2018-06-02T07:37:19.118Z,99.99
2018-06-02T07:39:20.677Z,99.99
2018-06-02T07:41:22.457Z,99.99
2018-06-02T07:43:24.246Z,99.99
2018-06-02T07:46:05.209Z,99.99
2018-06-02T07:48:06.625Z,99.99
2018-06-02T07:50:08.195Z,99.99
2018-06-02T07:52:09.569Z,99.99
2018-06-02T07:54:11.020Z,99.99
2018-06-02T07:56:12.776Z,99.99
2018-06-02T07:58:14.256Z,99.99
2018-06-02T08:00:15.953Z,99.99
2018-06-02T08:02:17.529Z,99.99
2018-06-02T08:04:59.944Z,99.99
2018-06-02T08:07:01.378Z,99.99
2018-06-02T08:09:02.932Z,99.99
2018-06-02T08:11:04.338Z,99.99
2018-06-02T08:13:05.813Z,99.99
2018-06-02T08:15:07.388Z,99.99
2018-06-02T08:17:08.903Z,99.99
2018-06-02T08:19:10.335Z,99.99
2018-06-02T08:21:11.765Z,99.99
2018-06-02T08:23:13.206Z,99.99
2018-06-02T08:25:55.818Z,99.99
2018-06-02T08:27:57.557Z,99.99
2018-06-02T08:29:58.986Z,99.99
2018-06-02T08:32:00.723Z,99.99
2018-06-02T08:34:02.142Z,99.99
2018-06-02T08:36:03.565Z,99.99
2018-06-02T08:38:05.012Z,99.99
2018-06-02T08:40:06.532Z,99.99
2018-06-02T08:42:08.308Z,99.99
2018-06-02T08:44:50.897Z,99.99
2018-06-02T08:46:52.327Z,99.99
2018-06-02T08:48:53.810Z,99.99
2018-06-02T08:50:55.228Z,99.99
2018-06-02T08:52:56.656Z,99.99
2018-06-02T08:55:39.256Z,99.99
2018-06-02T08:57:40.672Z,99.99
2018-06-02T08:59:42.094Z,99.99
2018-06-02T09:01:43.864Z,99.99
2018-06-02T09:03:45.288Z,99.99
2018-06-02T09:05:46.718Z,99.99
2018-06-02T09:07:48.466Z,99.99
2018-06-02T09:09:50.071Z,99.99
2018-06-02T09:11:51.565Z,99.99
2018-06-02T09:13:53.265Z,99.99
2018-06-02T09:15:55.015Z,99.99
2018-06-02T09:17:56.538Z,99.83
2018-06-02T09:19:58.045Z,99.73
2018-06-02T09:21:59.585Z,98.77
2018-06-02T09:24:01.358Z,98.14
2018-06-02T09:26:02.872Z,99.68
2018-06-02T09:28:04.411Z,98.68
2018-06-02T09:30:05.912Z,98.05
2018-06-02T09:32:07.469Z,98.96
2018-06-02T09:34:08.968Z,99.44
2018-06-02T09:36:10.703Z,98.00
2018-06-02T09:38:12.428Z,97.24
2018-06-02T09:40:13.915Z,97.24
2018-06-02T09:42:15.431Z,97.71
2018-06-02T09:44:16.954Z,97.81
2018-06-02T09:46:18.483Z,97.42
2018-06-02T09:48:20.037Z,97.67
2018-06-02T09:50:21.601Z,97.19
2018-06-02T09:52:23.029Z,97.76
2018-06-02T09:54:24.631Z,95.55
2018-06-02T09:56:26.389Z,95.94
2018-06-02T09:58:28.207Z,96.42
2018-06-02T10:00:29.664Z,95.55
2018-06-02T10:02:31.202Z,94.54
2018-06-02T10:04:32.718Z,95.89
2018-06-02T10:06:34.241Z,96.08
2018-06-02T10:08:36.023Z,96.17
2018-06-02T10:10:37.865Z,95.89
2018-06-02T10:12:39.535Z,95.89
2018-06-02T10:15:21.966Z,94.45
2018-06-02T10:17:23.410Z,95.26
2018-06-02T10:19:24.837Z,94.01
2018-06-02T10:21:26.266Z,93.82
2018-06-02T10:23:27.707Z,93.19
2018-06-02T10:26:10.239Z,93.57
2018-06-02T10:28:11.862Z,92.13
2018-06-02T10:30:13.773Z,91.94
2018-06-02T10:32:15.212Z,91.65
2018-06-02T10:34:16.758Z,92.32
2018-06-02T10:36:59.588Z,93.00
2018-06-02T10:39:01.050Z,92.80
2018-06-02T10:41:02.480Z,91.55
2018-06-02T10:43:03.937Z,91.51
2018-06-02T10:45:46.541Z,91.89
2018-06-02T10:47:47.974Z,91.51
2018-06-02T10:49:49.427Z,93.48
2018-06-02T10:51:50.876Z,94.45
2018-06-02T10:54:33.422Z,94.30
2018-06-02T10:56:34.834Z,94.59
2018-06-02T10:58:36.401Z,93.19
2018-06-02T11:00:37.832Z,90.78
2018-06-02T11:02:39.406Z,90.59
2018-06-02T11:04:40.864Z,89.43
2018-06-02T11:06:42.302Z,89.29
2018-06-02T11:08:43.728Z,88.27
2018-06-02T11:10:45.163Z,86.44
2018-06-02T11:12:46.617Z,87.50
2018-06-02T11:14:48.052Z,86.88
2018-06-02T11:16:49.601Z,87.40
2018-06-02T11:18:51.065Z,85.77
2018-06-02T11:20:52.597Z,87.70
2018-06-02T11:22:54.032Z,85.96
2018-06-02T11:24:55.611Z,86.44
2018-06-02T11:26:57.340Z,87.06
2018-06-02T11:28:58.776Z,85.61
2018-06-02T11:31:00.428Z,84.75
2018-06-02T11:33:01.887Z,83.98
2018-06-02T11:35:03.485Z,83.88
2018-06-02T11:37:05.047Z,85.17
2018-06-02T11:39:06.580Z,82.96
2018-06-02T11:41:08.250Z,83.15
2018-06-02T11:43:09.792Z,81.84
2018-06-02T11:45:11.369Z,80.10
2018-06-02T11:47:12.875Z,81.26
2018-06-02T11:49:14.400Z,79.91
2018-06-02T11:51:15.940Z,81.26
2018-06-02T11:53:17.687Z,80.00
2018-06-02T11:55:19.425Z,79.91
2018-06-02T11:57:20.890Z,81.07
2018-06-02T11:59:22.380Z,80.49
2018-06-02T12:01:23.979Z,81.51
2018-06-02T12:03:25.500Z,81.70
2018-06-02T12:05:26.996Z,81.41
2018-06-02T12:07:28.468Z,83.25
2018-06-02T12:09:30.342Z,83.78
2018-06-02T12:11:31.818Z,83.98
2018-06-02T12:13:33.490Z,85.09
2018-06-02T12:15:35.299Z,84.99
2018-06-02T12:17:36.815Z,85.47
2018-06-02T12:19:38.353Z,86.78
2018-06-02T12:21:40.012Z,86.11
2018-06-02T12:23:41.583Z,86.40
2018-06-02T12:25:43.168Z,87.74
2018-06-02T12:27:45.019Z,87.55
2018-06-02T12:29:46.514Z,88.57
2018-06-02T12:31:48.048Z,88.67
2018-06-02T12:33:49.594Z,88.95
2018-06-02T12:36:32.155Z,89.48
2018-06-02T12:38:33.584Z,89.00
2018-06-02T12:40:35.013Z,88.81
2018-06-02T12:42:36.440Z,88.90
2018-06-02T12:45:17.880Z,89.33
2018-06-02T12:47:19.391Z,89.33
2018-06-02T12:49:20.804Z,87.50
2018-06-02T12:51:22.267Z,86.63
2018-06-02T12:53:23.725Z,86.63
2018-06-02T12:55:25.123Z,87.88
2018-06-02T12:57:26.553Z,87.50
2018-06-02T12:59:28.036Z,87.88
2018-06-02T13:01:29.468Z,88.27
2018-06-02T13:03:30.902Z,88.90
2018-06-02T13:06:13.489Z,92.22
2018-06-02T13:08:14.887Z,91.74
2018-06-02T13:10:16.585Z,90.78
2018-06-02T13:12:18.065Z,91.93
2018-06-02T13:15:00.584Z,90.72
2018-06-02T13:17:02.168Z,88.31
2018-06-02T13:19:03.589Z,88.12
2018-06-02T13:21:05.379Z,88.17
2018-06-02T13:23:06.806Z,83.92
2018-06-02T13:25:08.492Z,84.01
2018-06-02T13:27:09.915Z,82.86
2018-06-02T13:29:11.732Z,83.20
2018-06-02T13:31:13.176Z,82.82
2018-06-02T13:33:14.600Z,84.75
2018-06-02T13:35:16.036Z,83.88
2018-06-02T13:37:17.505Z,83.30
2018-06-02T13:39:18.881Z,85.03
2018-06-02T13:41:20.368Z,85.13
2018-06-02T13:43:21.821Z,84.55
2018-06-02T13:45:23.278Z,84.55
2018-06-02T13:47:24.697Z,83.01
2018-06-02T13:49:26.137Z,82.82
2018-06-02T13:51:27.575Z,81.91
2018-06-02T13:53:29.007Z,83.69
2018-06-02T13:55:30.700Z,83.40
2018-06-02T13:57:32.169Z,83.55
2018-06-02T13:59:33.711Z,83.36
2018-06-02T14:01:35.132Z,82.59
2018-06-02T14:03:36.648Z,84.46
2018-06-02T14:05:38.362Z,83.30
2018-06-02T14:07:39.895Z,83.40
2018-06-02T14:09:41.312Z,83.59
2018-06-02T14:11:42.842Z,84.17
2018-06-02T14:13:44.274Z,84.17
2018-06-02T14:15:45.705Z,83.11
2018-06-02T14:17:47.123Z,83.11
2018-06-02T14:19:48.582Z,82.92
2018-06-02T14:21:50.029Z,83.84
2018-06-02T14:23:51.544Z,83.40
2018-06-02T14:25:53.078Z,83.07
2018-06-02T14:27:54.637Z,84.42
2018-06-02T14:29:56.267Z,83.07
2018-06-02T14:31:57.875Z,83.07
2018-06-02T14:33:59.353Z,83.26
2018-06-02T14:36:00.820Z,83.84
2018-06-02T14:38:02.557Z,85.19
2018-06-02T14:40:04.405Z,84.61
2018-06-02T14:42:05.957Z,83.20
2018-06-02T14:44:07.494Z,82.92
2018-06-02T14:46:50.148Z,83.01
2018-06-02T14:48:51.568Z,82.24
2018-06-02T14:50:53.002Z,81.85
2018-06-02T14:52:54.427Z,81.47
2018-06-02T14:55:36.852Z,81.66
2018-06-02T14:57:38.282Z,80.69
2018-06-02T14:59:39.715Z,81.27
2018-06-02T15:01:41.149Z,81.95
2018-06-02T15:03:42.600Z,81.57
2018-06-02T15:06:25.029Z,81.32
2018-06-02T15:08:26.528Z,81.60
2018-06-02T15:10:27.948Z,80.93
2018-06-02T15:12:29.378Z,80.74
2018-06-02T15:14:30.899Z,81.02
2018-06-02T15:16:32.714Z,80.10
2018-06-02T15:18:34.525Z,80.00
2018-06-02T15:20:36.013Z,79.62
2018-06-02T15:22:37.555Z,79.33
2018-06-02T15:25:20.227Z,78.75
2018-06-02T15:27:21.662Z,78.56
2018-06-02T15:29:23.093Z,77.50
2018-06-02T15:31:24.580Z,77.11
2018-06-02T15:33:25.957Z,78.66
2018-06-02T15:36:08.663Z,78.85
2018-06-02T15:38:10.071Z,79.58
2018-06-02T15:40:11.505Z,79.39
2018-06-02T15:42:12.965Z,78.56
2018-06-02T15:44:14.366Z,77.50
2018-06-02T15:46:15.796Z,77.98
2018-06-02T15:48:17.291Z,77.11
2018-06-02T15:50:18.746Z,77.46
2018-06-02T15:52:20.200Z,79.14
2018-06-02T15:54:21.635Z,77.88
2018-06-02T15:56:23.076Z,78.81
2018-06-02T15:58:24.498Z,79.49
2018-06-02T16:00:25.928Z,79.19
2018-06-02T16:02:27.566Z,80.45
2018-06-02T16:04:29.144Z,80.16
2018-06-02T16:06:30.587Z,79.58
2018-06-02T16:08:32.027Z,79.00
2018-06-02T16:10:33.814Z,79.68
2018-06-02T16:12:35.327Z,79.91
2018-06-02T16:14:36.849Z,78.08
2018-06-02T16:16:38.331Z,77.59
2018-06-02T16:18:39.858Z,78.08
2018-06-02T16:20:41.418Z,76.86
2018-06-02T16:22:43.295Z,75.79
2018-06-02T16:24:44.776Z,76.92
2018-06-02T16:26:46.318Z,78.52
2018-06-02T16:28:47.927Z,79.91
2018-06-02T16:30:49.461Z,78.94
2018-06-02T16:32:50.986Z,78.21
2018-06-02T16:34:52.514Z,76.37
2018-06-02T16:36:54.002Z,75.79
2018-06-02T16:39:36.600Z,77.15
2018-06-02T16:41:38.128Z,77.92
2018-06-02T16:43:39.702Z,76.28
2018-06-02T16:45:41.111Z,77.09
2018-06-02T16:47:42.549Z,75.54
2018-06-02T16:49:43.972Z,75.79
2018-06-02T16:51:45.411Z,76.37
2018-06-02T16:53:47.020Z,75.79
2018-06-02T16:55:48.800Z,77.25
2018-06-02T16:57:50.405Z,76.37
2018-06-02T16:59:51.841Z,75.41
2018-06-02T17:01:53.554Z,75.31
2018-06-02T17:03:55.092Z,75.99
2018-06-02T17:05:56.616Z,76.37
2018-06-02T17:07:58.471Z,76.43
2018-06-02T17:10:00.197Z,78.08
2018-06-02T17:12:02.013Z,77.78
2018-06-02T17:14:03.510Z,78.79
2018-06-02T17:16:05.028Z,77.34
2018-06-02T17:18:06.818Z,77.63
2018-06-02T17:20:08.377Z,78.06
2018-06-02T17:22:09.919Z,76.03
2018-06-02T17:24:11.709Z,76.67
2018-06-02T17:26:13.229Z,77.09
2018-06-02T17:28:14.771Z,76.09
2018-06-02T17:30:16.286Z,76.76
2018-06-02T17:32:17.862Z,77.73
2018-06-02T17:35:00.445Z,78.27
2018-06-02T17:37:02.175Z,78.85
2018-06-02T17:39:03.600Z,77.88
2018-06-02T17:41:05.203Z,77.98
2018-06-02T17:43:06.637Z,75.47
2018-06-02T17:45:08.325Z,75.47
2018-06-02T17:47:09.781Z,75.67
2018-06-02T17:49:11.370Z,75.95
2018-06-02T17:51:12.809Z,76.15
2018-06-02T17:53:14.234Z,77.01
2018-06-02T17:55:56.947Z,77.01
2018-06-02T17:57:58.330Z,76.43
2018-06-02T17:59:59.839Z,77.11
2018-06-02T18:02:01.354Z,77.59
2018-06-02T18:04:02.798Z,77.59
2018-06-02T18:06:45.373Z,76.92
2018-06-02T18:08:46.807Z,77.46
2018-06-02T18:10:48.242Z,77.75
2018-06-02T18:12:49.761Z,78.52
2018-06-02T18:15:32.188Z,79.19
2018-06-02T18:17:33.618Z,80.54
2018-06-02T18:19:35.054Z,79.29
2018-06-02T18:21:36.524Z,79.10
2018-06-02T18:23:37.940Z,79.97
2018-06-02T18:25:39.380Z,80.54
2018-06-02T18:27:40.802Z,80.54
2018-06-02T18:29:42.229Z,80.26
2018-06-02T18:31:43.765Z,79.97
2018-06-02T18:33:45.388Z,80.26
2018-06-02T18:36:28.030Z,80.26
2018-06-02T18:38:29.463Z,80.64
2018-06-02T18:40:31.088Z,80.35
2018-06-02T18:42:32.503Z,81.41
2018-06-02T18:45:15.177Z,81.02
2018-06-02T18:47:16.601Z,81.22
2018-06-02T18:49:18.023Z,80.64
2018-06-02T18:51:19.831Z,81.22
2018-06-02T18:53:21.260Z,81.32
2018-06-02T18:55:22.676Z,81.12
2018-06-02T18:57:24.343Z,81.02
2018-06-02T18:59:26.186Z,81.60
2018-06-02T19:01:27.602Z,80.74
2018-06-02T19:03:29.039Z,80.74
2018-06-02T19:05:30.471Z,81.70
2018-06-02T19:07:31.973Z,81.32
2018-06-02T19:09:33.393Z,81.32
2018-06-02T19:11:34.862Z,81.60
2018-06-02T19:13:36.369Z,81.80
2018-06-02T19:15:37.923Z,81.80
2018-06-02T19:17:39.439Z,81.60
2018-06-02T19:19:40.952Z,81.90
2018-06-02T19:21:42.383Z,82.48
2018-06-02T19:23:43.886Z,81.70
2018-06-02T19:25:45.402Z,81.70
2018-06-02T19:27:46.950Z,81.02
2018-06-02T19:29:48.458Z,81.85
2018-06-02T19:31:50.119Z,81.51
2018-06-02T19:33:51.892Z,82.09
2018-06-02T19:35:53.407Z,82.38
2018-06-02T19:37:54.934Z,82.28
2018-06-02T19:39:56.443Z,82.09
2018-06-02T19:41:57.956Z,83.05
2018-06-02T19:43:59.453Z,82.67
2018-06-02T19:46:00.937Z,81.57
2018-06-02T19:48:02.467Z,82.24
2018-06-02T19:50:03.982Z,81.95
2018-06-02T19:52:05.826Z,83.20
2018-06-02T19:54:07.345Z,83.01
2018-06-02T19:56:08.849Z,82.24
2018-06-02T19:58:10.688Z,82.34
2018-06-02T20:00:12.199Z,82.92
2018-06-02T20:02:14.041Z,83.98
2018-06-02T20:04:15.489Z,84.36
2018-06-02T20:06:16.961Z,84.17
2018-06-02T20:08:18.760Z,82.05
2018-06-02T20:10:20.401Z,82.05
2018-06-02T20:12:21.945Z,83.01
2018-06-02T20:14:23.549Z,83.01
2018-06-02T20:16:25.065Z,84.07
2018-06-02T20:18:26.613Z,84.75
2018-06-02T20:20:28.127Z,84.36
2018-06-02T20:22:29.645Z,83.98
2018-06-02T20:25:12.273Z,84.07
2018-06-02T20:27:13.953Z,83.50
2018-06-02T20:29:15.575Z,83.20
2018-06-02T20:31:17.242Z,83.40
2018-06-02T20:33:18.673Z,83.20
2018-06-02T20:36:01.274Z,82.82
2018-06-02T20:38:03.037Z,83.50
2018-06-02T20:40:04.522Z,82.92
2018-06-02T20:42:05.947Z,82.92
2018-06-02T20:44:07.384Z,82.92
2018-06-02T20:46:49.998Z,83.40
2018-06-02T20:48:51.420Z,84.17
2018-06-02T20:50:52.854Z,83.98
2018-06-02T20:52:54.272Z,84.27
2018-06-02T20:54:55.847Z,84.36
2018-06-02T20:56:57.315Z,84.94
2018-06-02T20:58:58.761Z,83.98
2018-06-02T21:01:00.186Z,83.78
2018-06-02T21:03:01.611Z,83.98
2018-06-02T21:05:44.083Z,83.40
2018-06-02T21:07:45.539Z,83.30
2018-06-02T21:09:47.052Z,83.20
2018-06-02T21:11:48.449Z,83.59
2018-06-02T21:13:50.081Z,83.01
2018-06-02T21:16:32.639Z,83.30
2018-06-02T21:18:34.065Z,84.07
2018-06-02T21:20:35.492Z,83.74
2018-06-02T21:22:37.007Z,83.78
2018-06-02T21:25:19.538Z,83.78
2018-06-02T21:27:20.934Z,83.45
2018-06-02T21:29:22.368Z,83.94
2018-06-02T21:31:23.968Z,83.84
2018-06-02T21:33:25.525Z,83.74
2018-06-02T21:36:07.944Z,82.68
2018-06-02T21:38:09.372Z,82.29
2018-06-02T21:40:10.791Z,82.20
2018-06-02T21:42:12.220Z,83.55
2018-06-02T21:44:13.648Z,83.16
2018-06-02T21:46:15.233Z,83.51
2018-06-02T21:48:16.902Z,83.80
2018-06-02T21:50:18.443Z,83.51
2018-06-02T21:52:20.896Z,83.22
2018-06-02T21:54:22.367Z,83.80
2018-06-02T21:56:23.860Z,83.74
2018-06-02T21:58:25.720Z,83.80
2018-06-02T22:00:27.209Z,83.80
2018-06-02T22:02:28.651Z,83.89
2018-06-02T22:04:30.080Z,83.03
2018-06-02T22:06:31.537Z,83.55
2018-06-02T22:08:32.993Z,83.61
2018-06-02T22:10:34.486Z,82.93
2018-06-02T22:12:35.953Z,82.54
2018-06-02T22:14:37.659Z,82.83
2018-06-02T22:16:39.182Z,82.93
2018-06-02T22:18:40.988Z,83.22
2018-06-02T22:20:42.792Z,83.51
2018-06-02T22:22:44.274Z,83.41
2018-06-02T22:24:45.790Z,83.51
2018-06-02T22:26:47.344Z,83.12
2018-06-02T22:28:48.788Z,83.22
2018-06-02T22:30:51.307Z,83.22
2018-06-02T22:32:52.831Z,83.12
2018-06-02T22:34:54.335Z,83.22
2018-06-02T22:36:55.848Z,83.85
2018-06-02T22:39:38.448Z,83.95
2018-06-02T22:41:39.870Z,83.85
2018-06-02T22:43:41.294Z,84.23
2018-06-02T22:45:42.813Z,84.23
2018-06-02T22:47:44.240Z,83.75
2018-06-02T22:49:45.704Z,83.75
2018-06-02T22:51:47.138Z,83.75
2018-06-02T22:53:48.579Z,83.75
2018-06-02T22:55:50.114Z,83.85
2018-06-02T22:57:51.539Z,83.85
2018-06-02T22:59:52.967Z,84.62
2018-06-02T23:01:54.411Z,85.25
2018-06-02T23:03:55.842Z,85.64
2018-06-02T23:05:57.264Z,86.12
2018-06-02T23:07:58.772Z,86.12
2018-06-02T23:10:00.178Z,85.93
2018-06-02T23:12:01.633Z,85.54
2018-06-02T23:14:03.082Z,85.44
2018-06-02T23:16:45.673Z,85.25
2018-06-02T23:18:47.095Z,84.97
2018-06-02T23:20:48.725Z,85.35
2018-06-02T23:22:50.200Z,85.64
2018-06-02T23:25:32.175Z,85.64
2018-06-02T23:27:33.546Z,85.25
2018-06-02T23:29:34.968Z,85.64
2018-06-02T23:31:36.535Z,85.06
2018-06-02T23:33:38.182Z,85.06
2018-06-02T23:36:20.627Z,85.06
2018-06-02T23:38:22.077Z,84.97
2018-06-02T23:40:23.507Z,84.87
2018-06-02T23:42:24.940Z,84.87
2018-06-02T23:45:07.361Z,85.16
2018-06-02T23:47:08.800Z,85.64
2018-06-02T23:49:10.217Z,85.06
2018-06-02T23:51:11.674Z,85.16
2018-06-02T23:53:13.128Z,85.25
2018-06-02T23:55:55.555Z,85.06
2018-06-02T23:57:56.981Z,85.06
2018-06-02T23:59:58.408Z,85.16
